Time;durP1;ratioP1;P1;durP2;ratioP2;P2;SDS_P1;SDS_P2;PMS_P1;PMS_P2;Temp;Humidity;BMP_temperature;BMP_pressure;BME280_temperature;BME280_humidity;BME280_pressure;Samples;Min_cycle;Max_cycle;Signal;HPM_P1;HPM_P2
2023/08/14 00:00:58;;;;;;;5.75;5.20;;;;;;;;;;5053524;28;20021;-63
2023/08/14 00:03:24;;;;;;;6.43;5.72;;;;;;;;;;5053526;28;20013;-62
2023/08/14 00:05:49;;;;;;;5.68;5.25;;;;;;;;;;5053458;28;20072;-62
2023/08/14 00:08:14;;;;;;;6.20;5.60;;;;;;;;;;5035460;28;20029;-62
2023/08/14 00:10:40;;;;;;;6.40;5.80;;;;;;;;;;5053334;28;20528;-63
2023/08/14 00:13:05;;;;;;;6.55;5.60;;;;;;;;;;5053366;28;20075;-63
2023/08/14 00:15:30;;;;;;;5.68;5.18;;;;;;;;;;5053253;28;20375;-62
2023/08/14 00:17:56;;;;;;;5.53;5.13;;;;;;;;;;5053275;28;20379;-63
2023/08/14 00:20:21;;;;;;;5.78;5.28;;;;;;;;;;5035335;28;20025;-63
2023/08/14 00:22:46;;;;;;;6.07;5.57;;;;;;;;;;5035427;28;20040;-63
2023/08/14 00:25:12;;;;;;;5.63;5.20;;;;;;;;;;5035254;28;20052;-63
2023/08/14 00:27:37;;;;;;;6.38;5.20;;;;;;;;;;5053165;28;20430;-63
2023/08/14 00:30:02;;;;;;;6.25;5.55;;;;;;;;;;5035395;28;20031;-63
2023/08/14 00:32:28;;;;;;;5.68;5.28;;;;;;;;;;5053146;28;20457;-63
2023/08/14 00:34:53;;;;;;;5.97;5.10;;;;;;;;;;5053064;28;20140;-63
2023/08/14 00:37:21;;;;;;;5.45;5.05;;;;;;;;;;5053156;28;20017;-63
2023/08/14 00:39:46;;;;;;;6.28;5.70;;;;;;;;;;5053230;28;20047;-63
2023/08/14 00:42:11;;;;;;;5.57;5.07;;;;;;;;;;5053358;28;20033;-63
2023/08/14 00:44:37;;;;;;;5.35;4.85;;;;;;;;;;5035112;28;20070;-63
2023/08/14 00:47:02;;;;;;;6.22;4.82;;;;;;;;;;5035140;28;20467;-63
2023/08/14 00:49:27;;;;;;;5.55;5.05;;;;;;;;;;5035180;28;20021;-62
2023/08/14 00:51:53;;;;;;;5.35;4.85;;;;;;;;;;5019028;28;20208;-63
2023/08/14 00:54:18;;;;;;;5.20;4.90;;;;;;;;;;5053272;28;20017;-63
2023/08/14 00:56:43;;;;;;;5.47;5.05;;;;;;;;;;5035390;28;20487;-63
2023/08/14 00:59:09;;;;;;;5.25;4.75;;;;;;;;;;5035373;28;20482;-63
2023/08/14 01:01:35;;;;;;;5.53;5.00;;;;;;;;;;5053519;28;20459;-63
2023/08/14 01:04:01;;;;;;;5.05;4.68;;;;;;;;;;5039293;28;20119;-63
2023/08/14 01:06:27;;;;;;;5.82;5.40;;;;;;;;;;5057101;28;20475;-63
2023/08/14 01:08:52;;;;;;;6.18;4.93;;;;;;;;;;5057307;28;20116;-63
2023/08/14 01:11:26;;;;;;;5.28;4.40;;;;;;;;;;5057571;28;20028;-63
2023/08/14 01:14:04;;;;;;;5.88;5.38;;;;;;;;;;5039102;28;20459;-63
2023/08/14 01:16:33;;;;;;;5.25;4.75;;;;;;;;;;5038951;28;20395;-63
2023/08/14 01:18:59;;;;;;;7.45;5.28;;;;;;;;;;5038946;28;20379;-63
2023/08/14 01:21:26;;;;;;;5.75;5.38;;;;;;;;;;5056813;28;20021;-63
2023/08/14 01:24:00;;;;;;;5.60;5.10;;;;;;;;;;5039074;28;20083;-62
2023/08/14 01:26:26;;;;;;;6.97;5.60;;;;;;;;;;5038828;28;20029;-62
2023/08/14 01:28:53;;;;;;;5.40;5.00;;;;;;;;;;5038790;28;20027;-63
2023/08/14 01:31:19;;;;;;;5.70;5.20;;;;;;;;;;5038707;28;20063;-63
2023/08/14 01:33:44;;;;;;;6.50;5.68;;;;;;;;;;5038721;28;20410;-62
2023/08/14 01:36:20;;;;;;;5.78;5.28;;;;;;;;;;5038955;28;20479;-63
2023/08/14 01:39:21;;;;;;;7.18;4.65;;;;;;;;;;5039182;28;20060;-63
2023/08/14 01:41:55;;;;;;;4.97;4.57;;;;;;;;;;4995109;28;20533;-63
2023/08/14 01:44:23;;;;;;;5.22;4.90;;;;;;;;;;5047415;28;20487;-62
2023/08/14 01:46:50;;;;;;;5.55;5.15;;;;;;;;;;5039301;28;20029;-62
2023/08/14 01:49:16;;;;;;;7.13;5.30;;;;;;;;;;5056834;28;20111;-62
2023/08/14 01:51:43;;;;;;;5.40;4.90;;;;;;;;;;5056545;28;20063;-62
2023/08/14 01:54:09;;;;;;;5.50;5.10;;;;;;;;;;5038641;28;20586;-62
2023/08/14 01:56:34;;;;;;;5.35;4.97;;;;;;;;;;5038281;28;20128;-62
2023/08/14 01:58:59;;;;;;;4.90;4.50;;;;;;;;;;5038266;28;20111;-62
2023/08/14 02:01:25;;;;;;;4.93;4.53;;;;;;;;;;5056063;28;20028;-62
2023/08/14 02:03:50;;;;;;;6.72;4.50;;;;;;;;;;5056575;28;20029;-62
2023/08/14 02:06:15;;;;;;;5.38;4.97;;;;;;;;;;5038184;28;20024;-62
2023/08/14 02:08:40;;;;;;;6.22;5.22;;;;;;;;;;5056278;28;20020;-62
2023/08/14 02:11:07;;;;;;;5.45;5.05;;;;;;;;;;5055890;28;20459;-61
2023/08/14 02:13:32;;;;;;;7.03;5.75;;;;;;;;;;5036729;28;20041;-61
2023/08/14 02:15:58;;;;;;;6.30;5.05;;;;;;;;;;5037813;28;20410;-63
2023/08/14 02:18:23;;;;;;;6.35;5.35;;;;;;;;;;5056324;28;20033;-63
2023/08/14 02:20:49;;;;;;;5.20;4.88;;;;;;;;;;5055982;28;20025;-63
2023/08/14 02:23:15;;;;;;;6.63;4.75;;;;;;;;;;5055762;28;20025;-63
2023/08/14 02:25:43;;;;;;;5.50;4.97;;;;;;;;;;5055656;28;20475;-64
2023/08/14 02:28:08;;;;;;;4.90;4.47;;;;;;;;;;5037709;28;20123;-64
2023/08/14 02:30:38;;;;;;;5.20;4.80;;;;;;;;;;5037636;28;20127;-62
2023/08/14 02:33:04;;;;;;;;;;;;;;;;;;5038036;28;20071;-63
2023/08/14 02:35:29;;;;;;;5.27;4.43;;;;;;;;;;5037528;28;19947;-63
2023/08/14 02:37:54;;;;;;;5.53;5.05;;;;;;;;;;5037530;28;20347;-63
2023/08/14 02:40:20;;;;;;;5.28;4.88;;;;;;;;;;5055907;28;20029;-63
2023/08/14 02:42:45;;;;;;;5.30;4.88;;;;;;;;;;5037383;28;20029;-63
2023/08/14 02:45:11;;;;;;;4.97;4.57;;;;;;;;;;5055269;28;20029;-63
2023/08/14 02:47:36;;;;;;;5.85;5.03;;;;;;;;;;5055489;28;20013;-70
2023/08/14 02:50:02;;;;;;;5.05;4.65;;;;;;;;;;5037131;28;20039;-65
2023/08/14 02:52:29;;;;;;;5.82;5.25;;;;;;;;;;5033973;28;20033;-65
2023/08/14 02:54:56;;;;;;;8.05;5.50;;;;;;;;;;5017276;28;20376;-65
2023/08/14 02:57:21;;;;;;;5.50;5.00;;;;;;;;;;5017220;28;20014;-65
2023/08/14 02:59:47;;;;;;;5.65;5.00;;;;;;;;;;5016667;28;20017;-64
2023/08/14 03:02:12;;;;;;;5.53;5.15;;;;;;;;;;5016700;28;20033;-64
2023/08/14 03:04:37;;;;;;;5.20;4.70;;;;;;;;;;5000859;28;20026;-65
2023/08/14 03:07:03;;;;;;;5.00;4.70;;;;;;;;;;5017188;28;20033;-64
2023/08/14 03:09:28;;;;;;;4.82;4.43;;;;;;;;;;5035169;28;20052;-64
2023/08/14 03:11:53;;;;;;;5.60;5.20;;;;;;;;;;4998678;28;20069;-65
2023/08/14 03:14:19;;;;;;;5.88;5.38;;;;;;;;;;5015052;28;20033;-64
2023/08/14 03:16:44;;;;;;;8.60;4.75;;;;;;;;;;5032740;28;20333;-64
2023/08/14 03:19:09;;;;;;;6.07;4.85;;;;;;;;;;5015010;28;20025;-65
2023/08/14 03:21:35;;;;;;;8.52;5.35;;;;;;;;;;5032935;28;20068;-64
2023/08/14 03:24:00;;;;;;;5.50;5.05;;;;;;;;;;5032904;28;20091;-64
2023/08/14 03:26:25;;;;;;;6.35;5.63;;;;;;;;;;5015827;28;20065;-65
2023/08/14 03:28:52;;;;;;;5.53;5.03;;;;;;;;;;5016927;28;20045;-64
2023/08/14 03:31:17;;;;;;;5.63;4.80;;;;;;;;;;5034429;28;20091;-64
2023/08/14 03:33:43;;;;;;;5.03;4.68;;;;;;;;;;5016762;28;20030;-64
2023/08/14 03:36:09;;;;;;;5.80;4.63;;;;;;;;;;5000347;28;20104;-64
2023/08/14 03:38:34;;;;;;;5.45;4.40;;;;;;;;;;5016675;28;20053;-64
2023/08/14 03:41:00;;;;;;;4.70;4.40;;;;;;;;;;5034305;28;20014;-65
2023/08/14 03:43:26;;;;;;;4.82;4.53;;;;;;;;;;5016560;28;20022;-65
2023/08/14 03:45:51;;;;;;;5.20;4.80;;;;;;;;;;5016544;28;20032;-64
2023/08/14 03:48:16;;;;;;;5.18;4.78;;;;;;;;;;5034460;28;20048;-64
2023/08/14 03:50:46;;;;;;;4.78;4.47;;;;;;;;;;5016447;28;20037;-64
2023/08/14 03:53:12;;;;;;;4.55;4.32;;;;;;;;;;5016415;28;20033;-65
2023/08/14 03:55:37;;;;;;;6.38;4.07;;;;;;;;;;5046501;23;20064;-64
2023/08/14 03:58:35;;;;;;;4.82;4.53;;;;;;;;;;5064281;22;20073;-59
2023/08/14 04:01:00;;;;;;;5.82;5.20;;;;;;;;;;5058761;22;20415;-58
2023/08/14 04:03:25;;;;;;;6.18;4.97;;;;;;;;;;5033902;28;20026;-58
2023/08/14 04:05:57;;;;;;;7.75;5.80;;;;;;;;;;5016200;28;20475;-58
2023/08/14 04:08:22;;;;;;;5.83;5.40;;;;;;;;;;5033921;28;20025;-58
2023/08/14 04:10:55;;;;;;;6.22;5.63;;;;;;;;;;5007984;28;20646;-58
2023/08/14 04:13:21;;;;;;;6.22;5.18;;;;;;;;;;5034373;28;20025;-58
2023/08/14 04:15:46;;;;;;;5.60;5.20;;;;;;;;;;5016083;28;20368;-58
2023/08/14 04:18:11;;;;;;;6.75;5.40;;;;;;;;;;5033738;28;20079;-58
2023/08/14 04:20:36;;;;;;;6.53;5.28;;;;;;;;;;5034280;28;20075;-58
2023/08/14 04:23:02;;;;;;;7.75;5.25;;;;;;;;;;5015971;28;20061;-58
2023/08/14 04:25:28;;;;;;;7.47;4.95;;;;;;;;;;5033918;28;20029;-58
2023/08/14 04:27:54;;;;;;;5.45;4.78;;;;;;;;;;5016059;28;20022;-58
2023/08/14 04:30:19;;;;;;;5.97;4.88;;;;;;;;;;5033629;28;20099;-58
2023/08/14 04:32:45;;;;;;;8.05;5.35;;;;;;;;;;5015883;28;20131;-58
2023/08/14 04:35:11;;;;;;;7.72;5.40;;;;;;;;;;5015825;28;20123;-58
2023/08/14 04:37:37;;;;;;;5.43;4.93;;;;;;;;;;5018237;28;20113;-58
2023/08/14 04:40:04;;;;;;;9.63;5.45;;;;;;;;;;5019973;28;20052;-58
2023/08/14 04:42:30;;;;;;;5.65;5.10;;;;;;;;;;5019846;28;20032;-58
2023/08/14 04:44:56;;;;;;;7.20;5.22;;;;;;;;;;5037860;28;20033;-58
2023/08/14 04:47:21;;;;;;;5.13;4.70;;;;;;;;;;5019820;28;20021;-58
2023/08/14 04:49:47;;;;;;;5.18;4.68;;;;;;;;;;5019791;28;20356;-58
2023/08/14 04:52:13;;;;;;;5.30;4.90;;;;;;;;;;5020567;28;20424;-58
2023/08/14 04:54:38;;;;;;;6.10;4.95;;;;;;;;;;5019671;28;20021;-58
2023/08/14 04:57:03;;;;;;;5.93;4.75;;;;;;;;;;5019565;28;20037;-58
2023/08/14 04:59:29;;;;;;;5.43;5.03;;;;;;;;;;5019580;28;20045;-58
2023/08/14 05:01:55;;;;;;;5.65;5.10;;;;;;;;;;5019416;28;20056;-58
2023/08/14 05:04:23;;;;;;;5.60;4.93;;;;;;;;;;5019483;28;20022;-58
2023/08/14 05:06:48;;;;;;;5.60;5.20;;;;;;;;;;5019417;28;20033;-58
2023/08/14 05:09:14;;;;;;;7.70;5.20;;;;;;;;;;5019437;28;20442;-58
2023/08/14 05:11:39;;;;;;;5.90;5.38;;;;;;;;;;5019362;28;20055;-58
2023/08/14 05:14:05;;;;;;;8.73;5.15;;;;;;;;;;5037037;28;20029;-58
2023/08/14 05:16:31;;;;;;;6.95;5.45;;;;;;;;;;5019176;28;20104;-58
2023/08/14 05:18:57;;;;;;;5.57;5.05;;;;;;;;;;5019232;28;20030;-58
2023/08/14 05:21:22;;;;;;;6.30;4.75;;;;;;;;;;5037470;28;20037;-58
2023/08/14 05:23:48;;;;;;;6.15;5.53;;;;;;;;;;5036882;28;20021;-58
2023/08/14 05:26:13;;;;;;;6.97;5.38;;;;;;;;;;5037347;28;20048;-58
2023/08/14 05:28:38;;;;;;;6.05;5.55;;;;;;;;;;5019657;28;20025;-58
2023/08/14 05:31:07;;;;;;;5.95;5.47;;;;;;;;;;5036770;28;20040;-58
2023/08/14 05:33:32;;;;;;;6.45;5.32;;;;;;;;;;5036750;28;20069;-58
2023/08/14 05:35:57;;;;;;;6.85;5.78;;;;;;;;;;5036587;28;20083;-58
2023/08/14 05:38:23;;;;;;;9.38;5.85;;;;;;;;;;5018902;28;20064;-58
2023/08/14 05:40:48;;;;;;;5.10;4.63;;;;;;;;;;5037105;28;20056;-58
2023/08/14 05:43:13;;;;;;;5.15;4.75;;;;;;;;;;5036555;28;20490;-58
2023/08/14 05:45:41;;;;;;;5.57;4.95;;;;;;;;;;5036743;28;20089;-58
2023/08/14 05:48:07;;;;;;;4.93;4.25;;;;;;;;;;5018792;28;20025;-58
2023/08/14 05:50:32;;;;;;;4.68;4.18;;;;;;;;;;5036422;28;20029;-58
2023/08/14 05:53:00;;;;;;;5.07;4.65;;;;;;;;;;5036635;28;20095;-58
2023/08/14 05:55:26;;;;;;;5.13;4.68;;;;;;;;;;5036489;28;20472;-58
2023/08/14 05:57:51;;;;;;;7.20;4.88;;;;;;;;;;5036263;28;20033;-58
2023/08/14 06:00:17;;;;;;;4.75;4.22;;;;;;;;;;5018315;28;20049;-58
2023/08/14 06:02:43;;;;;;;4.72;4.43;;;;;;;;;;5055391;28;20391;-58
2023/08/14 06:05:09;;;;;;;4.78;4.47;;;;;;;;;;5056039;28;20028;-58
2023/08/14 06:07:35;;;;;;;5.60;4.03;;;;;;;;;;5055981;28;20044;-58
2023/08/14 06:10:00;;;;;;;4.70;3.92;;;;;;;;;;5055954;28;20041;-58
2023/08/14 06:12:25;;;;;;;3.95;3.65;;;;;;;;;;5055889;28;20040;-58
2023/08/14 06:14:51;;;;;;;4.00;3.70;;;;;;;;;;5055769;28;20051;-58
2023/08/14 06:17:16;;;;;;;6.22;3.72;;;;;;;;;;5055838;28;20074;-58
2023/08/14 06:19:41;;;;;;;4.18;3.83;;;;;;;;;;5056313;28;20061;-58
2023/08/14 06:22:06;;;;;;;4.55;4.15;;;;;;;;;;5055764;28;20104;-58
2023/08/14 06:24:32;;;;;;;3.97;3.70;;;;;;;;;;5055649;28;20025;-58
2023/08/14 06:26:57;;;;;;;4.57;4.15;;;;;;;;;;5055902;28;20033;-58
2023/08/14 06:29:22;;;;;;;4.05;3.75;;;;;;;;;;5055591;28;20028;-58
2023/08/14 06:31:48;;;;;;;4.78;3.65;;;;;;;;;;5055531;28;20388;-58
2023/08/14 06:34:13;;;;;;;3.58;3.35;;;;;;;;;;5055772;28;20028;-58
2023/08/14 06:36:39;;;;;;;6.63;3.33;;;;;;;;;;5055356;28;20056;-58
2023/08/14 06:39:04;;;;;;;4.75;3.38;;;;;;;;;;5055673;28;20100;-58
2023/08/14 06:41:29;;;;;;;3.65;3.33;;;;;;;;;;5055935;28;20025;-58
2023/08/14 06:43:54;;;;;;;5.20;3.20;;;;;;;;;;5055333;28;20029;-58
2023/08/14 06:46:20;;;;;;;3.17;3.03;;;;;;;;;;5020973;28;20029;-58
2023/08/14 06:48:45;;;;;;;3.58;3.38;;;;;;;;;;5038019;28;20021;-58
2023/08/14 06:51:10;;;;;;;3.65;3.40;;;;;;;;;;5055160;28;20520;-58
2023/08/14 06:53:36;;;;;;;4.20;3.80;;;;;;;;;;5055402;28;20029;-58
2023/08/14 06:56:01;;;;;;;3.90;3.60;;;;;;;;;;5055300;28;20123;-58
2023/08/14 06:58:26;;;;;;;5.50;3.42;;;;;;;;;;5037141;28;20028;-58
2023/08/14 07:00:52;;;;;;;3.55;3.22;;;;;;;;;;5054174;28;20090;-58
2023/08/14 07:03:17;;;;;;;3.17;2.97;;;;;;;;;;5054948;28;20021;-58
2023/08/14 07:05:43;;;;;;;3.88;3.35;;;;;;;;;;5054919;28;20040;-58
2023/08/14 07:08:09;;;;;;;3.33;3.08;;;;;;;;;;5055117;28;20035;-58
2023/08/14 07:10:34;;;;;;;4.85;3.67;;;;;;;;;;5055115;28;20064;-58
2023/08/14 07:13:00;;;;;;;3.97;3.67;;;;;;;;;;5054757;28;20504;-58
2023/08/14 07:15:26;;;;;;;4.45;3.63;;;;;;;;;;5055152;28;20036;-58
2023/08/14 07:17:51;;;;;;;4.00;3.70;;;;;;;;;;5054962;28;20039;-58
2023/08/14 07:20:17;;;;;;;4.25;3.85;;;;;;;;;;5054891;28;20045;-58
2023/08/14 07:22:42;;;;;;;3.35;3.15;;;;;;;;;;5054569;28;20368;-58
2023/08/14 07:25:08;;;;;;;3.33;3.13;;;;;;;;;;5055126;28;20020;-58
2023/08/14 07:27:33;;;;;;;5.57;3.50;;;;;;;;;;5054786;28;20083;-58
2023/08/14 07:29:59;;;;;;;3.72;3.45;;;;;;;;;;5054456;28;20053;-58
2023/08/14 07:32:24;;;;;;;3.50;3.22;;;;;;;;;;5054413;28;20433;-58
2023/08/14 07:34:49;;;;;;;4.25;3.83;;;;;;;;;;5054259;28;20021;-58
2023/08/14 07:37:15;;;;;;;3.88;3.15;;;;;;;;;;5054300;28;20026;-58
2023/08/14 07:39:40;;;;;;;4.32;3.92;;;;;;;;;;5054284;28;20112;-58
2023/08/14 07:42:05;;;;;;;3.83;3.42;;;;;;;;;;5054211;28;20458;-58
2023/08/14 07:44:31;;;;;;;4.20;3.90;;;;;;;;;;5054167;28;20033;-58
2023/08/14 07:46:56;;;;;;;5.50;3.90;;;;;;;;;;5053957;28;20032;-58
2023/08/14 07:49:21;;;;;;;5.57;4.32;;;;;;;;;;5054055;28;20033;-58
2023/08/14 07:51:47;;;;;;;4.63;4.00;;;;;;;;;;5054276;28;20033;-58
2023/08/14 07:54:12;;;;;;;4.35;3.72;;;;;;;;;;5036193;28;20025;-58
2023/08/14 07:56:37;;;;;;;4.25;3.95;;;;;;;;;;5054208;28;20037;-58
2023/08/14 07:59:05;;;;;;;3.92;3.63;;;;;;;;;;5053992;28;20039;-58
2023/08/14 08:01:31;;;;;;;3.78;3.58;;;;;;;;;;5035974;28;20080;-58
2023/08/14 08:03:57;;;;;;;5.18;2.90;;;;;;;;;;5040303;28;20026;-58
2023/08/14 08:06:22;;;;;;;2.90;2.75;;;;;;;;;;5038840;28;20446;-58
2023/08/14 08:08:47;;;;;;;6.97;2.67;;;;;;;;;;5053555;28;20079;-58
2023/08/14 08:11:13;;;;;;;3.53;2.90;;;;;;;;;;5035567;28;20037;-58
2023/08/14 08:13:38;;;;;;;3.95;2.88;;;;;;;;;;5036382;28;20060;-58
2023/08/14 08:16:04;;;;;;;2.92;2.72;;;;;;;;;;5053645;28;20020;-58
2023/08/14 08:18:29;;;;;;;3.22;2.92;;;;;;;;;;5053637;28;20033;-58
2023/08/14 08:20:54;;;;;;;3.55;3.22;;;;;;;;;;5053926;28;20039;-58
2023/08/14 08:23:20;;;;;;;4.05;3.20;;;;;;;;;;5050483;28;20514;-58
2023/08/14 08:25:46;;;;;;;2.95;2.75;;;;;;;;;;5041415;28;20028;-58
2023/08/14 08:28:11;;;;;;;3.35;2.88;;;;;;;;;;5049189;28;20033;-58
2023/08/14 08:30:36;;;;;;;5.38;3.05;;;;;;;;;;5034228;28;20361;-58
2023/08/14 08:33:02;;;;;;;3.05;2.72;;;;;;;;;;5015941;28;20087;-58
2023/08/14 08:35:28;;;;;;;3.25;2.72;;;;;;;;;;5062214;22;20045;-58
2023/08/14 08:37:53;;;;;;;4.93;2.50;;;;;;;;;;5034340;28;20032;-64
2023/08/14 08:40:19;;;;;;;3.80;2.60;;;;;;;;;;5052621;28;20022;-58
2023/08/14 08:42:45;;;;;;;2.65;2.45;;;;;;;;;;5052864;28;20036;-58
2023/08/14 08:45:12;;;;;;;2.92;2.40;;;;;;;;;;5052999;28;20449;-58
2023/08/14 08:47:39;;;;;;;2.85;2.65;;;;;;;;;;5053020;28;20092;-58
2023/08/14 08:50:05;;;;;;;2.88;2.60;;;;;;;;;;5053104;28;20049;-58
2023/08/14 08:52:31;;;;;;;2.95;2.78;;;;;;;;;;5035697;28;20086;-58
2023/08/14 08:54:59;;;;;;;3.13;2.92;;;;;;;;;;5053407;28;20033;-58
2023/08/14 08:57:25;;;;;;;3.10;2.78;;;;;;;;;;5053838;28;20064;-58
2023/08/14 08:59:51;;;;;;;2.55;2.45;;;;;;;;;;5033483;28;20052;-58
2023/08/14 09:02:16;;;;;;;2.90;2.70;;;;;;;;;;5027376;28;20378;-58
2023/08/14 09:04:42;;;;;;;3.10;2.80;;;;;;;;;;5044408;28;20025;-58
2023/08/14 09:07:07;;;;;;;2.58;2.47;;;;;;;;;;5043425;28;20365;-58
2023/08/14 09:09:35;;;;;;;2.47;2.38;;;;;;;;;;5026902;28;20060;-58
2023/08/14 09:12:01;;;;;;;3.63;2.65;;;;;;;;;;5043665;28;20034;-58
2023/08/14 09:14:26;;;;;;;4.28;2.85;;;;;;;;;;5033541;28;20033;-58
2023/08/14 09:16:54;;;;;;;2.47;2.35;;;;;;;;;;5033006;28;20030;-58
2023/08/14 09:19:20;;;;;;;4.68;2.55;;;;;;;;;;5049019;28;20029;-58
2023/08/14 09:21:46;;;;;;;2.75;2.05;;;;;;;;;;5053400;28;20375;-58
2023/08/14 09:24:15;;;;;;;2.25;2.15;;;;;;;;;;5056672;28;20029;-58
2023/08/14 09:26:46;;;;;;;2.85;2.00;;;;;;;;;;5057083;28;20043;-58
2023/08/14 09:29:14;;;;;;;2.10;2.00;;;;;;;;;;5050814;28;20038;-58
2023/08/14 09:31:45;;;;;;;2.53;2.20;;;;;;;;;;5056694;28;20424;-58
2023/08/14 09:34:15;;;;;;;2.55;2.10;;;;;;;;;;5042087;28;20041;-58
2023/08/14 09:36:42;;;;;;;2.15;2.05;;;;;;;;;;5036539;28;20080;-58
2023/08/14 09:39:08;;;;;;;1.83;1.70;;;;;;;;;;5040151;28;20078;-58
2023/08/14 09:41:35;;;;;;;2.28;2.08;;;;;;;;;;5054001;28;20028;-58
2023/08/14 09:44:00;;;;;;;1.92;1.77;;;;;;;;;;5056779;28;20420;-58
2023/08/14 09:46:27;;;;;;;2.50;2.30;;;;;;;;;;5039485;28;20108;-58
2023/08/14 09:48:52;;;;;;;2.40;2.22;;;;;;;;;;5037067;28;20119;-58
2023/08/14 09:51:18;;;;;;;2.33;2.15;;;;;;;;;;5035298;28;20071;-58
2023/08/14 09:53:50;;;;;;;3.03;2.33;;;;;;;;;;5056568;28;20394;-58
2023/08/14 09:56:19;;;;;;;2.60;2.40;;;;;;;;;;5056188;28;20382;-58
2023/08/14 09:58:44;;;;;;;4.75;2.20;;;;;;;;;;5038655;28;20055;-58
2023/08/14 10:01:12;;;;;;;2.30;2.20;;;;;;;;;;5056436;28;20375;-58
2023/08/14 10:03:38;;;;;;;2.17;1.77;;;;;;;;;;5056677;28;20033;-58
2023/08/14 10:06:04;;;;;;;2.80;2.28;;;;;;;;;;5056360;28;20467;-58
2023/08/14 10:08:33;;;;;;;2.22;2.13;;;;;;;;;;5056311;28;20021;-62
2023/08/14 10:10:59;;;;;;;3.38;2.53;;;;;;;;;;5056578;28;20099;-58
2023/08/14 10:13:25;;;;;;;4.75;2.00;;;;;;;;;;5034577;28;20495;-58
2023/08/14 10:15:52;;;;;;;2.67;2.30;;;;;;;;;;5036068;28;20025;-58
2023/08/14 10:18:20;;;;;;;2.30;2.10;;;;;;;;;;5036627;28;20029;-58
2023/08/14 10:20:47;;;;;;;2.97;2.47;;;;;;;;;;5036378;28;20060;-59
2023/08/14 10:23:13;;;;;;;2.88;2.30;;;;;;;;;;5075695;23;20049;-58
2023/08/14 10:25:39;;;;;;;2.53;2.33;;;;;;;;;;5043093;28;20033;-65
2023/08/14 10:28:08;;;;;;;3.20;1.83;;;;;;;;;;5064358;23;20095;-59
2023/08/14 10:30:34;;;;;;;2.60;2.38;;;;;;;;;;5053765;28;20021;-65
2023/08/14 10:33:00;;;;;;;2.75;2.55;;;;;;;;;;5045361;23;20111;-64
2023/08/14 10:35:26;;;;;;;4.80;2.70;;;;;;;;;;5033074;28;20037;-64
2023/08/14 10:37:52;;;;;;;1.92;1.83;;;;;;;;;;5034266;28;20035;-59
2023/08/14 10:40:18;;;;;;;2.35;2.20;;;;;;;;;;5017393;28;20032;-59
2023/08/14 10:42:44;;;;;;;4.18;2.65;;;;;;;;;;5029634;28;20026;-59
2023/08/14 10:45:10;;;;;;;2.15;2.05;;;;;;;;;;4999386;28;20025;-59
2023/08/14 10:47:37;;;;;;;3.25;2.85;;;;;;;;;;5025890;28;20022;-58
2023/08/14 10:50:11;;;;;;;2.63;2.42;;;;;;;;;;5016032;28;20104;-58
2023/08/14 10:52:37;;;;;;;4.03;2.38;;;;;;;;;;4998306;28;20033;-58
2023/08/14 10:55:02;;;;;;;3.13;2.72;;;;;;;;;;5015718;28;20026;-58
2023/08/14 10:57:28;;;;;;;2.95;2.72;;;;;;;;;;5015655;28;20026;-58
2023/08/14 10:59:54;;;;;;;3.15;2.60;;;;;;;;;;5014784;28;20025;-58
2023/08/14 11:02:20;;;;;;;4.18;2.63;;;;;;;;;;5015739;28;20191;-58
2023/08/14 11:05:00;;;;;;;3.40;2.40;;;;;;;;;;4998198;28;20033;-58
2023/08/14 11:07:30;;;;;;;2.97;2.65;;;;;;;;;;5015692;28;20465;-58
2023/08/14 11:09:56;;;;;;;2.95;2.75;;;;;;;;;;4997773;28;20045;-58
2023/08/14 11:12:22;;;;;;;2.05;1.95;;;;;;;;;;4997498;28;20113;-58
2023/08/14 11:14:47;;;;;;;2.63;2.53;;;;;;;;;;5014980;28;20109;-58
2023/08/14 11:17:13;;;;;;;3.05;2.65;;;;;;;;;;5014879;28;20353;-59
2023/08/14 11:19:38;;;;;;;2.90;2.65;;;;;;;;;;5015031;28;20033;-58
2023/08/14 11:22:03;;;;;;;4.57;3.00;;;;;;;;;;5014807;28;20050;-58
2023/08/14 11:24:32;;;;;;;3.05;2.85;;;;;;;;;;5014868;28;20399;-58
2023/08/14 11:26:58;;;;;;;2.70;2.60;;;;;;;;;;5014818;28;20105;-58
2023/08/14 11:29:23;;;;;;;2.53;2.10;;;;;;;;;;5014796;28;20518;-58
2023/08/14 11:31:49;;;;;;;2.25;2.10;;;;;;;;;;5014745;28;20030;-58
2023/08/14 11:34:14;;;;;;;2.78;2.58;;;;;;;;;;5021403;28;20037;-58
2023/08/14 11:36:41;;;;;;;2.30;1.90;;;;;;;;;;5034294;28;20044;-58
2023/08/14 11:39:07;;;;;;;2.25;1.98;;;;;;;;;;5034330;28;20030;-59
2023/08/14 11:41:35;;;;;;;1.90;1.80;;;;;;;;;;5034278;28;20079;-58
2023/08/14 11:44:01;;;;;;;3.33;2.22;;;;;;;;;;5034363;28;20033;-58
2023/08/14 11:46:27;;;;;;;2.22;2.03;;;;;;;;;;5033992;28;20541;-59
2023/08/14 11:48:52;;;;;;;4.68;1.90;;;;;;;;;;5034147;28;20041;-58
2023/08/14 11:51:18;;;;;;;11.15;2.55;;;;;;;;;;5034233;28;20021;-58
2023/08/14 11:53:43;;;;;;;3.28;2.22;;;;;;;;;;5034221;28;20037;-58
2023/08/14 11:56:09;;;;;;;2.35;1.98;;;;;;;;;;5034147;28;20091;-58
2023/08/14 11:58:38;;;;;;;2.92;1.85;;;;;;;;;;5033995;28;20057;-58
2023/08/14 12:01:03;;;;;;;2.03;1.90;;;;;;;;;;5033979;28;20066;-58
2023/08/14 12:03:30;;;;;;;3.25;1.77;;;;;;;;;;5033923;28;20045;-58
2023/08/14 12:06:03;;;;;;;2.08;1.90;;;;;;;;;;5033828;28;20051;-58
2023/08/14 12:08:29;;;;;;;2.88;1.90;;;;;;;;;;5033927;28;20025;-59
2023/08/14 12:10:54;;;;;;;2.13;1.90;;;;;;;;;;5033881;28;20033;-58
2023/08/14 12:13:20;;;;;;;2.28;2.05;;;;;;;;;;5033731;28;20037;-58
2023/08/14 12:15:46;;;;;;;3.50;2.50;;;;;;;;;;5033705;28;20128;-58
2023/08/14 12:18:12;;;;;;;3.65;1.92;;;;;;;;;;5032530;28;20025;-58
2023/08/14 12:20:37;;;;;;;2.00;1.90;;;;;;;;;;5033723;28;20163;-58
2023/08/14 12:23:13;;;;;;;1.77;1.67;;;;;;;;;;5033645;28;20041;-58
2023/08/14 12:25:38;;;;;;;1.80;1.70;;;;;;;;;;5033685;28;20025;-58
2023/08/14 12:28:04;;;;;;;4.20;2.95;;;;;;;;;;5033554;28;20486;-59
2023/08/14 12:30:29;;;;;;;2.13;2.00;;;;;;;;;;5033587;28;20124;-58
2023/08/14 12:32:56;;;;;;;2.08;1.73;;;;;;;;;;5033392;28;20054;-59
2023/08/14 12:35:22;;;;;;;3.60;1.92;;;;;;;;;;5033461;28;20041;-58
2023/08/14 12:37:47;;;;;;;1.95;1.83;;;;;;;;;;5033519;28;20035;-58
2023/08/14 12:40:12;;;;;;;2.17;1.85;;;;;;;;;;5032219;28;20017;-58
2023/08/14 12:42:38;;;;;;;2.95;1.50;;;;;;;;;;5033448;28;20025;-59
2023/08/14 12:45:05;;;;;;;1.88;1.63;;;;;;;;;;5033556;28;20029;-58
2023/08/14 12:47:31;;;;;;;1.75;1.58;;;;;;;;;;5033618;28;20044;-58
2023/08/14 12:49:56;;;;;;;3.13;1.98;;;;;;;;;;5032259;28;20510;-58
2023/08/14 12:52:22;;;;;;;1.92;1.75;;;;;;;;;;5033319;28;20025;-59
2023/08/14 12:54:47;;;;;;;2.13;1.92;;;;;;;;;;5033404;28;20033;-58
2023/08/14 12:57:15;;;;;;;4.07;1.85;;;;;;;;;;5033295;28;20087;-58
2023/08/14 12:59:40;;;;;;;2.58;2.05;;;;;;;;;;5037175;28;20025;-58
2023/08/14 13:02:06;;;;;;;2.70;1.80;;;;;;;;;;5037543;28;20048;-58
2023/08/14 13:04:31;;;;;;;3.45;2.20;;;;;;;;;;5037209;28;20390;-58
2023/08/14 13:06:57;;;;;;;3.30;2.13;;;;;;;;;;5036045;28;20037;-58
2023/08/14 13:09:22;;;;;;;2.55;2.13;;;;;;;;;;5037454;28;20120;-58
2023/08/14 13:11:54;;;;;;;3.70;2.25;;;;;;;;;;5045230;23;20058;-64
2023/08/14 13:14:19;;;;;;;3.90;2.10;;;;;;;;;;5070620;22;20053;-59
2023/08/14 13:16:44;;;;;;;2.22;2.10;;;;;;;;;;5055208;23;20495;-58
2023/08/14 13:19:09;;;;;;;2.53;2.22;;;;;;;;;;5039105;28;20031;-65
2023/08/14 13:21:35;;;;;;;3.60;2.08;;;;;;;;;;5057208;28;20029;-65
2023/08/14 13:24:00;;;;;;;4.00;2.17;;;;;;;;;;5056880;28;20041;-64
2023/08/14 13:26:25;;;;;;;2.85;2.45;;;;;;;;;;5057126;28;20021;-65
2023/08/14 13:28:51;;;;;;;3.42;2.17;;;;;;;;;;5056800;28;20037;-65
2023/08/14 13:31:16;;;;;;;3.92;2.42;;;;;;;;;;5039537;28;20033;-64
2023/08/14 13:33:41;;;;;;;2.30;2.10;;;;;;;;;;5056671;28;20079;-65
2023/08/14 13:36:07;;;;;;;2.78;2.33;;;;;;;;;;5056889;28;20036;-65
2023/08/14 13:38:32;;;;;;;2.47;2.28;;;;;;;;;;5056587;28;20534;-64
2023/08/14 13:40:57;;;;;;;2.38;2.20;;;;;;;;;;5056591;28;20035;-65
2023/08/14 13:43:24;;;;;;;2.85;2.17;;;;;;;;;;5056527;28;20053;-64
2023/08/14 13:45:49;;;;;;;4.13;2.50;;;;;;;;;;5056497;28;20098;-64
2023/08/14 13:48:14;;;;;;;2.60;2.40;;;;;;;;;;5056462;28;20108;-65
2023/08/14 13:50:40;;;;;;;3.80;2.38;;;;;;;;;;5056706;28;20435;-64
2023/08/14 13:53:05;;;;;;;2.20;2.00;;;;;;;;;;5056337;28;20025;-65
2023/08/14 13:55:31;;;;;;;2.30;2.10;;;;;;;;;;5056200;28;20025;-65
2023/08/14 13:57:57;;;;;;;3.72;2.55;;;;;;;;;;5056552;28;20018;-65
2023/08/14 14:00:23;;;;;;;2.60;2.40;;;;;;;;;;5056457;28;20485;-65
2023/08/14 14:02:48;;;;;;;2.53;2.33;;;;;;;;;;5056440;28;20029;-65
2023/08/14 14:05:15;;;;;;;3.60;2.42;;;;;;;;;;5056104;28;20067;-65
2023/08/14 14:07:40;;;;;;;3.05;2.70;;;;;;;;;;5038551;28;20033;-65
2023/08/14 14:10:06;;;;;;;2.63;2.40;;;;;;;;;;5056145;28;20025;-64
2023/08/14 14:12:32;;;;;;;3.70;2.47;;;;;;;;;;5056232;28;20017;-65
2023/08/14 14:14:59;;;;;;;4.03;2.20;;;;;;;;;;5055955;28;20037;-65
2023/08/14 14:17:24;;;;;;;4.55;2.45;;;;;;;;;;5055794;28;20406;-64
2023/08/14 14:19:49;;;;;;;4.63;2.22;;;;;;;;;;5055866;28;20033;-65
2023/08/14 14:22:14;;;;;;;3.17;2.17;;;;;;;;;;5056356;28;20036;-65
2023/08/14 14:24:40;;;;;;;7.68;2.10;;;;;;;;;;5056019;28;20055;-65
2023/08/14 14:27:05;;;;;;;2.28;1.95;;;;;;;;;;5056027;28;20102;-65
2023/08/14 14:29:30;;;;;;;2.80;2.08;;;;;;;;;;5055910;28;20383;-65
2023/08/14 14:31:56;;;;;;;3.40;2.05;;;;;;;;;;5055619;28;20060;-65
2023/08/14 14:34:21;;;;;;;2.70;2.15;;;;;;;;;;5055830;28;20056;-64
2023/08/14 14:36:46;;;;;;;2.95;2.45;;;;;;;;;;5055473;28;20031;-65